Thunder radar more information blitzortung!


Radar de pluja more information rain snow radar


Visita la nostra xarxa de llocs de meteo:

Template documentation
and downloads

And another site



No particular awareness of the weather is required.    There are no Weather-warnings

Pagina Historial Weather Underground text

Diari Resum January 8, 2016 Unitats:  Mètric    Imperial   Tant
« Previous Dia
SegĂźent Dia »
Diari Setmana Mensual Anual Personalitzada
  Maxima: Minima: Media:
Temperatura: 22.6 °C 13.1 °C 18.1 °C
Punt de rosada: 10.1 °C 5.8 °C 7.6 °C
Humitat: 62 % 41 % 51 %
Wind Speed: 16.7 km/h 0.0 km/h 4.7 km/h
RĂ fegues de vent: 16.7 km/h - -
Vent:- - SW
Pression baro: 1010.7 hPa 1007.0 hPa -
Precipitacions: 0.0 mm    
Historical Graphs
 
 
Dades de taula per January 8, 2016
Temps Temperatura Punt de rosada Pression baro Vent Wind Speed RĂ fegues de vent Humitat Rainfall Rate (Hourly)
11:06 18.2 °C 9.0 °C 1010.7 hPa SW 11.4 km/h 11.4 km/h 55 % 0.0 mm
11:11 18.3 °C 8.8 °C 1010.0 hPa SW 9.3 km/h 9.3 km/h 54 % 0.0 mm
11:16 18.6 °C 9.4 °C 1010.0 hPa West 5.6 km/h 5.6 km/h 55 % 0.0 mm
11:21 18.8 °C 9.6 °C 1010.0 hPa SW 5.6 km/h 5.6 km/h 55 % 0.0 mm
11:26 18.9 °C 9.7 °C 1010.0 hPa WNW 3.7 km/h 3.7 km/h 55 % 0.0 mm
11:31 19.0 °C 9.2 °C 1010.0 hPa West 3.7 km/h   53 % 0.0 mm
11:36 19.3 °C 9.5 °C 1010.0 hPa ENE 1.9 km/h   53 % 0.0 mm
11:41 19.7 °C 9.8 °C 1010.0 hPa Calm     53 % 0.0 mm
11:46 20.0 °C 10.1 °C 1010.0 hPa SSE 5.6 km/h 5.6 km/h 53 % 0.0 mm
11:51 20.2 °C 10.0 °C 1010.0 hPa SW 9.3 km/h 9.3 km/h 52 % 0.0 mm
11:56 20.2 °C 9.7 °C 1010.0 hPa SW 13.7 km/h 13.7 km/h 51 % 0.0 mm
12:01 20.3 °C 9.6 °C 1010.0 hPa WNW 5.6 km/h 5.8 km/h 50 % 0.0 mm
12:06 20.4 °C 9.6 °C 1010.0 hPa West 9.3 km/h 9.3 km/h 50 % 0.0 mm
12:11 20.8 °C 10.0 °C 1010.0 hPa WSW 7.4 km/h 7.4 km/h 50 % 0.0 mm
12:16 20.7 °C 9.6 °C 1010.0 hPa SW 14.8 km/h 14.8 km/h 49 % 0.0 mm
12:21 20.7 °C 9.6 °C 1010.0 hPa SW 14.8 km/h 14.8 km/h 49 % 0.0 mm
12:26 20.7 °C 9.3 °C 1010.0 hPa WSW 13.0 km/h 13.0 km/h 48 % 0.0 mm
12:31 20.8 °C 9.4 °C 1010.0 hPa SW 13.0 km/h 13.0 km/h 48 % 0.0 mm
12:36 21.1 °C 9.3 °C 1010.0 hPa WSW 16.7 km/h 16.7 km/h 47 % 0.0 mm
12:41 21.3 °C 9.5 °C 1009.0 hPa WSW 13.0 km/h 13.0 km/h 47 % 0.0 mm
12:46 21.4 °C 9.6 °C 1009.0 hPa West 8.7 km/h 8.7 km/h 47 % 0.0 mm
12:51 21.5 °C 9.7 °C 1009.0 hPa WSW 7.9 km/h 7.9 km/h 47 % 0.0 mm
12:56 21.2 °C 9.1 °C 1009.0 hPa WSW 9.3 km/h 9.3 km/h 46 % 0.0 mm
13:01 21.5 °C 9.7 °C 1009.0 hPa West 5.8 km/h 5.8 km/h 47 % 0.0 mm
13:06 21.6 °C 9.5 °C 1009.0 hPa West 7.4 km/h 7.4 km/h 46 % 0.0 mm
13:11 21.8 °C 9.7 °C 1008.0 hPa SW 10.3 km/h 10.3 km/h 46 % 0.0 mm
13:16 21.8 °C 9.3 °C 1008.0 hPa West 7.9 km/h 7.9 km/h 45 % 0.0 mm
13:21 21.8 °C 9.0 °C 1008.0 hPa WSW 16.7 km/h 16.7 km/h 44 % 0.0 mm
13:26 21.8 °C 9.0 °C 1008.0 hPa WSW 9.3 km/h 9.7 km/h 44 % 0.0 mm
13:31 21.9 °C 9.1 °C 1008.0 hPa SSW 10.3 km/h 10.3 km/h 44 % 0.0 mm
13:36 22.1 °C 8.9 °C 1008.0 hPa WSW 11.4 km/h 11.4 km/h 43 % 0.0 mm
13:41 22.2 °C 9.4 °C 1008.0 hPa WNW 11.1 km/h 11.1 km/h 44 % 0.0 mm
13:46 22.3 °C 9.1 °C 1008.0 hPa SW 10.0 km/h 10.0 km/h 43 % 0.0 mm
13:51 22.4 °C 9.2 °C 1008.0 hPa SW 13.0 km/h 13.0 km/h 43 % 0.0 mm
13:56 22.3 °C 9.1 °C 1008.0 hPa West 7.4 km/h 7.4 km/h 43 % 0.0 mm
14:01 22.3 °C 8.8 °C 1008.0 hPa West 7.4 km/h 7.4 km/h 42 % 0.0 mm
14:06 22.1 °C 8.6 °C 1008.0 hPa West 7.4 km/h 7.4 km/h 42 % 0.0 mm
14:16 22.4 °C 8.8 °C 1008.0 hPa West 7.4 km/h 7.4 km/h 42 % 0.0 mm
14:21 22.4 °C 9.2 °C 1008.0 hPa West 7.4 km/h 7.4 km/h 43 % 0.0 mm
14:26 22.6 °C 9.4 °C 1007.0 hPa ESE 7.4 km/h 7.4 km/h 43 % 0.0 mm
14:31 22.4 °C 8.8 °C 1007.0 hPa ESE 5.6 km/h 5.6 km/h 42 % 0.0 mm
14:36 22.3 °C 8.8 °C 1007.0 hPa ESE 5.6 km/h 5.6 km/h 42 % 0.0 mm
14:41 22.2 °C 8.7 °C 1008.0 hPa ESE 5.6 km/h 5.6 km/h 42 % 0.0 mm
14:46 22.3 °C 9.1 °C 1008.0 hPa West 3.7 km/h 5.8 km/h 43 % 0.0 mm
14:51 22.4 °C 8.8 °C 1008.0 hPa West 3.7 km/h 5.8 km/h 42 % 0.0 mm
14:56 22.4 °C 8.8 °C 1008.0 hPa WNW 12.2 km/h 12.2 km/h 42 % 0.0 mm
15:01 22.5 °C 8.9 °C 1008.0 hPa WNW 13.0 km/h 13.0 km/h 42 % 0.0 mm
15:06 22.4 °C 8.8 °C 1008.0 hPa SW 13.0 km/h 13.0 km/h 42 % 0.0 mm
15:11 22.4 °C 8.8 °C 1008.0 hPa West 5.6 km/h 5.6 km/h 42 % 0.0 mm
15:16 22.5 °C 8.9 °C 1008.0 hPa West 13.0 km/h 13.0 km/h 42 % 0.0 mm
15:22 22.5 °C 8.6 °C 1008.0 hPa West 4.2 km/h 6.4 km/h 41 % 0.0 mm
15:27 22.2 °C 8.3 °C 1008.0 hPa WSW 6.1 km/h 6.1 km/h 41 % 0.0 mm
15:32 22.3 °C 8.4 °C 1008.0 hPa SSW 5.6 km/h 5.6 km/h 41 % 0.0 mm
15:37 22.3 °C 8.4 °C 1008.0 hPa SW 7.9 km/h 7.9 km/h 41 % 0.0 mm
15:42 22.3 °C 8.4 °C 1007.0 hPa SSW 7.9 km/h 7.9 km/h 41 % 0.0 mm
15:47 22.4 °C 8.5 °C 1007.0 hPa SSW 7.4 km/h 7.4 km/h 41 % 0.0 mm
15:52 22.4 °C 8.5 °C 1007.0 hPa SSE 6.4 km/h 6.4 km/h 41 % 0.0 mm
15:57 22.4 °C 8.5 °C 1008.0 hPa SW 3.7 km/h 5.3 km/h 41 % 0.0 mm
16:02 22.1 °C 8.2 °C 1008.0 hPa West 3.9 km/h 3.9 km/h 41 % 0.0 mm
16:07 21.6 °C 7.8 °C 1008.0 hPa SSW 5.6 km/h 5.6 km/h 41 % 0.0 mm
16:12 21.2 °C 7.4 °C 1008.0 hPa WSW 1.9 km/h 4.2 km/h 41 % 0.0 mm
16:17 21.0 °C 7.2 °C 1008.0 hPa WNW 7.4 km/h 7.4 km/h 41 % 0.0 mm
16:22 20.7 °C 7.3 °C 1008.0 hPa ESE 3.7 km/h 3.7 km/h 42 % 0.0 mm
16:27 20.4 °C 7.4 °C 1008.0 hPa ESE 5.6 km/h 5.6 km/h 43 % 0.0 mm
16:32 20.3 °C 7.3 °C 1008.0 hPa WNW 5.8 km/h 5.8 km/h 43 % 0.0 mm
16:37 20.1 °C 7.1 °C 1008.0 hPa WNW 5.6 km/h 5.6 km/h 43 % 0.0 mm
16:42 19.9 °C 7.3 °C 1008.0 hPa NE 2.3 km/h 2.3 km/h 44 % 0.0 mm
16:47 19.8 °C 7.2 °C 1008.0 hPa ENE 3.2 km/h 3.2 km/h 44 % 0.0 mm
16:52 19.6 °C 7.0 °C 1008.0 hPa West 2.3 km/h 2.3 km/h 44 % 0.0 mm
16:57 19.4 °C 7.2 °C 1008.0 hPa West 3.7 km/h 3.9 km/h 45 % 0.0 mm
17:02 19.3 °C 7.1 °C 1008.0 hPa NW 5.6 km/h 5.6 km/h 45 % 0.0 mm
17:07 19.1 °C 6.9 °C 1008.0 hPa NNW 3.7 km/h 3.7 km/h 45 % 0.0 mm
17:12 19.0 °C 7.1 °C 1007.0 hPa North 1.9 km/h 1.9 km/h 46 % 0.0 mm
17:17 18.8 °C 7.2 °C 1007.0 hPa North 5.6 km/h 5.6 km/h 47 % 0.0 mm
17:22 18.7 °C 7.2 °C 1007.0 hPa NW 2.3 km/h 2.3 km/h 47 % 0.0 mm
17:27 18.5 °C 7.3 °C 1007.0 hPa WSW 2.6 km/h 2.6 km/h 48 % 0.0 mm
17:32 18.4 °C 7.2 °C 1007.0 hPa SSW 1.9 km/h 1.9 km/h 48 % 0.0 mm
17:37 18.2 °C 7.0 °C 1007.0 hPa WNW 3.7 km/h 3.7 km/h 48 % 0.0 mm
17:42 18.1 °C 6.9 °C 1007.0 hPa WSW 1.9 km/h 1.9 km/h 48 % 0.0 mm
17:47 18.0 °C 7.1 °C 1007.0 hPa WSW 1.9 km/h 1.9 km/h 49 % 0.0 mm
17:52 17.8 °C 6.9 °C 1007.0 hPa WSW 1.9 km/h 1.9 km/h 49 % 0.0 mm
17:57 17.7 °C 6.8 °C 1008.0 hPa NW 1.9 km/h 1.9 km/h 49 % 0.0 mm
18:02 17.6 °C 6.8 °C 1008.0 hPa Calm     49 % 0.0 mm
18:07 17.5 °C 6.9 °C 1008.0 hPa SW 1.9 km/h 1.9 km/h 50 % 0.0 mm
18:12 17.4 °C 6.9 °C 1008.0 hPa SW 6.1 km/h 6.1 km/h 50 % 0.0 mm
18:17 17.3 °C 6.8 °C 1008.0 hPa SW 6.1 km/h 6.1 km/h 50 % 0.0 mm
18:22 17.2 °C 6.7 °C 1008.0 hPa ENE 3.7 km/h   50 % 0.0 mm
18:27 17.1 °C 6.6 °C 1008.0 hPa SSW 2.3 km/h 3.5 km/h 50 % 0.0 mm
18:32 17.0 °C 6.8 °C 1008.0 hPa SW 1.9 km/h   51 % 0.0 mm
18:37 16.8 °C 6.9 °C 1008.0 hPa SW 1.9 km/h 1.9 km/h 52 % 0.0 mm
18:42 16.8 °C 6.9 °C 1008.0 hPa Calm   3.5 km/h 52 % 0.0 mm
18:47 16.7 °C 6.8 °C 1008.0 hPa Calm     52 % 0.0 mm
18:52 16.6 °C 6.7 °C 1008.0 hPa SW 3.7 km/h 3.7 km/h 52 % 0.0 mm
18:57 16.5 °C 6.6 °C 1007.0 hPa SW 1.9 km/h 2.3 km/h 52 % 0.0 mm
19:02 16.4 °C 6.8 °C 1007.0 hPa SW 1.9 km/h 2.3 km/h 53 % 0.0 mm
19:07 16.4 °C 6.8 °C 1007.0 hPa WSW 2.6 km/h 3.2 km/h 53 % 0.0 mm
19:12 16.2 °C 6.6 °C 1008.0 hPa WSW 3.9 km/h 3.9 km/h 53 % 0.0 mm
19:17 16.1 °C 6.5 °C 1008.0 hPa SW 3.7 km/h 3.7 km/h 53 % 0.0 mm
19:22 16.0 °C 6.7 °C 1008.0 hPa Calm     54 % 0.0 mm
19:27 15.9 °C 6.6 °C 1008.0 hPa WSW 3.7 km/h   54 % 0.0 mm
19:32 15.7 °C 6.4 °C 1008.0 hPa WSW 3.9 km/h 3.9 km/h 54 % 0.0 mm
19:37 15.6 °C 6.3 °C 1008.0 hPa SW 3.7 km/h 3.7 km/h 54 % 0.0 mm
19:42 15.6 °C 6.3 °C 1008.0 hPa SW 2.3 km/h 2.3 km/h 54 % 0.0 mm
19:47 15.5 °C 6.5 °C 1008.0 hPa Calm     55 % 0.0 mm
19:52 15.4 °C 6.4 °C 1008.0 hPa SW 1.9 km/h 1.9 km/h 55 % 0.0 mm
19:57 15.3 °C 6.3 °C 1008.0 hPa SW 1.9 km/h 1.9 km/h 55 % 0.0 mm
20:02 15.2 °C 6.2 °C 1008.0 hPa SW 1.9 km/h 1.9 km/h 55 % 0.0 mm
20:07 15.3 °C 6.3 °C 1008.0 hPa SW 1.9 km/h 1.9 km/h 55 % 0.0 mm
20:12 15.3 °C 6.3 °C 1008.0 hPa SW 3.7 km/h 3.7 km/h 55 % 0.0 mm
20:17 15.2 °C 6.5 °C 1008.0 hPa WSW 3.7 km/h 3.7 km/h 56 % 0.0 mm
20:22 15.0 °C 6.3 °C 1008.0 hPa Calm     56 % 0.0 mm
20:27 14.9 °C 6.4 °C 1007.0 hPa Calm     57 % 0.0 mm
20:32 14.8 °C 6.1 °C 1007.0 hPa Calm     56 % 0.0 mm
20:37 14.6 °C 6.2 °C 1007.0 hPa Calm     57 % 0.0 mm
20:42 14.3 °C 5.9 °C 1008.0 hPa Calm     57 % 0.0 mm
20:47 14.2 °C 6.1 °C 1008.0 hPa Calm     58 % 0.0 mm
20:52 14.2 °C 6.3 °C 1008.0 hPa Calm     59 % 0.0 mm
20:57 14.2 °C 6.3 °C 1008.0 hPa Calm     59 % 0.0 mm
21:02 14.2 °C 6.3 °C 1008.0 hPa Calm     59 % 0.0 mm
21:07 14.1 °C 6.2 °C 1008.0 hPa Calm     59 % 0.0 mm
21:13 13.7 °C 5.8 °C 1008.0 hPa Calm     59 % 0.0 mm
21:18 13.7 °C 6.1 °C 1008.0 hPa Calm     60 % 0.0 mm
21:23 13.7 °C 6.1 °C 1008.0 hPa SSW 6.4 km/h 6.4 km/h 60 % 0.0 mm
21:28 13.7 °C 6.3 °C 1008.0 hPa SW 6.1 km/h 6.1 km/h 61 % 0.0 mm
21:33 13.8 °C 6.7 °C 1008.0 hPa SW 6.1 km/h 6.1 km/h 62 % 0.0 mm
21:38 13.8 °C 6.7 °C 1008.0 hPa SW 6.1 km/h 6.1 km/h 62 % 0.0 mm
21:43 13.8 °C 6.7 °C 1008.0 hPa SW 6.1 km/h 6.1 km/h 62 % 0.0 mm
21:48 14.0 °C 6.8 °C 1008.0 hPa WNW 5.6 km/h 5.6 km/h 62 % 0.0 mm
21:53 14.3 °C 7.1 °C 1008.0 hPa WSW 4.2 km/h 4.2 km/h 62 % 0.0 mm
21:58 14.6 °C 7.4 °C 1008.0 hPa WSW 3.7 km/h 3.7 km/h 62 % 0.0 mm
22:03 14.6 °C 7.2 °C 1008.0 hPa WSW 3.7 km/h 3.7 km/h 61 % 0.0 mm
22:08 14.6 °C 7.2 °C 1008.0 hPa SW 3.9 km/h 4.7 km/h 61 % 0.0 mm
22:13 14.4 °C 6.9 °C 1008.0 hPa WSW 1.9 km/h   61 % 0.0 mm
22:18 14.6 °C 7.2 °C 1008.0 hPa West 3.7 km/h 3.7 km/h 61 % 0.0 mm
22:23 14.5 °C 7.1 °C 1008.0 hPa Calm     61 % 0.0 mm
22:28 14.5 °C 7.1 °C 1008.0 hPa Calm     61 % 0.0 mm
22:33 14.4 °C 6.9 °C 1008.0 hPa Calm     61 % 0.0 mm
22:38 14.2 °C 6.8 °C 1008.0 hPa Calm     61 % 0.0 mm
22:43 13.8 °C 6.4 °C 1008.0 hPa Calm     61 % 0.0 mm
22:48 13.5 °C 6.1 °C 1008.0 hPa Calm   1.9 km/h 61 % 0.0 mm
22:53 13.3 °C 5.9 °C 1008.0 hPa Calm   1.9 km/h 61 % 0.0 mm
22:58 13.3 °C 6.2 °C 1008.0 hPa Calm   1.9 km/h 62 % 0.0 mm
23:03 13.2 °C 6.1 °C 1008.0 hPa WSW 3.7 km/h 3.7 km/h 62 % 0.0 mm
23:08 13.2 °C 6.1 °C 1008.0 hPa WSW 3.7 km/h 3.7 km/h 62 % 0.0 mm
23:13 13.1 °C 6.0 °C 1008.0 hPa WSW 3.7 km/h 3.7 km/h 62 % 0.0 mm
23:18 13.3 °C 6.2 °C 1008.0 hPa WSW 1.9 km/h   62 % 0.0 mm
23:23 13.5 °C 6.3 °C 1008.0 hPa Calm     62 % 0.0 mm
23:28 13.7 °C 6.6 °C 1007.0 hPa Calm     62 % 0.0 mm
23:33 13.9 °C 6.7 °C 1007.0 hPa Calm     62 % 0.0 mm
23:38 14.0 °C 6.6 °C 1007.0 hPa Calm     61 % 0.0 mm
23:43 14.0 °C 6.6 °C 1007.0 hPa Calm     61 % 0.0 mm
23:48 13.8 °C 6.4 °C 1007.0 hPa Calm     61 % 0.0 mm
Meteo Sesrovires
Elogis d' Weather Underground - 3.25 mb

Guio original per  Jim McMurry - jmcmurry@mwt.net Adaptat per a la plantilla per  Wim van der Kuil - Leuven-Template.eu

Trobareu la nostra informacio del temps tambe a:

Weather Underground

AWEKAS